EPKKLHBP

Guest
Details From EPKK - BALICE
To LHBP - Ferihegy (Budapest)
Flight Number -
Tags generated
Created
Modified
Stats Distance 160 nm / 296 km
Max Altitude 12,600 ft / 3,840 m
Waypoints 3
Social Downloads 1
Likes 0
Share

Download

Looking for another format? Having issues loading an existing format? Contact us
Advertisement - Login to hide

Notes

Basic altitude profile: - Ascent Rate: 2500ft/min - Ascent Speed: 250kts - Cruise Altitude: 35000ft - Cruise Speed: 420kts - Descent Rate: 1500ft/min - Descent Speed: 250kts Options: - Use NATs: yes - Use PACOTS: yes - Use low airways: yes - Use high airways: no

Route

EPKK KULIN LHBP

ID Type Via Altitude (ft/m) Position (lat/lon) Dist (leg/tot) Name
O EPKK APT - 0 / 0 50.07782 / 19.78550 - / 0 nm BALICE
KULIN FIX - 12,600 / 3,840 48.49222 / 19.45139 96 / 96 nm
O LHBP APT - 0 / 0 47.43529 / 19.26579 63 / 160 nm Ferihegy (Budapest)

Altitude Profile

Advertisement - Login to hide

EPKK

Details ICAO EPKK (KRK)
Name Krakow-John Paul II
Region Poland
Timezone Europe/Warsaw (UTC+2.0)
Stats Elevation 791 ft / 241 m (AMSL)
Location 50.077800° 19.785500°
Runways 1
Magnetic Variation 5.644° E

METAR

EPKK 240430Z 05002KT CAVOK 16/14 Q1016

Decode

TAF

TAF EPKK 240230Z 2403/2503 07004KT CAVOK= TAF EPWA 240230Z 2403/2503 VRB02KT CAVOK

Decode

Departure Runways

ID Width Length Bearing (true/mag) Surface Threshold Overrun Markings Lighting
07 197 ft / 60 m 8,352 ft / 2,546 m 77.76° / 72.11° CONCRETE 0 ft / 0 m 0 ft / 0 m PREC-APP CENTERLINE EDGE THRESHOLD ALSF-I REIL-OMNI
25 197 ft / 60 m 8,352 ft / 2,546 m 257.78° / 252.14° CONCRETE 778 ft / 237 m 0 ft / 0 m PREC-APP CENTERLINE EDGE THRESHOLD ALSF-II TDZ REIL-OMNI

LHBP

Details ICAO LHBP (BUD)
Name Budapest Ferenc Liszt Intl
Region Hungary
Timezone Europe/Budapest (UTC+2.0)
Stats Elevation 495 ft / 151 m (AMSL)
Location 47.436900° 19.255600°
Runways 2
Magnetic Variation 5.179° E

METAR

LHBP 240430Z VRB02KT CAVOK 15/13 Q1015 NOSIG

Decode

TAF

TAF TAF LHBP 232315Z 2400/2424 VRB03KT CAVOK BECMG 2407/2410 16007KT BECMG 2417/2419 VRB03KT

Decode

Destination Runways

ID Width Length Bearing (true/mag) Surface Threshold Overrun Markings Lighting
13L 148 ft / 45 m 12,175 ft / 3,711 m 132.46° / 127.28° CONCRETE 0 ft / 0 m 0 ft / 0 m PREC-APP CENTERLINE EDGE THRESHOLD ALSF-II TDZ REIL-OMNI
13R 148 ft / 45 m 9,882 ft / 3,012 m 132.42° / 127.24° CONCRETE 0 ft / 0 m 0 ft / 0 m PREC-APP CENTERLINE EDGE THRESHOLD ALSF-II TDZ REIL-OMNI
31L 148 ft / 45 m 9,882 ft / 3,012 m 312.44° / 307.26° CONCRETE 0 ft / 0 m 0 ft / 0 m PREC-APP CENTERLINE EDGE THRESHOLD ALSF-II TDZ REIL-OMNI
31R 148 ft / 45 m 12,175 ft / 3,711 m 312.49° / 307.31° CONCRETE 0 ft / 0 m 0 ft / 0 m PREC-APP CENTERLINE EDGE THRESHOLD ALSF-II TDZ REIL-OMNI

Approach Navaids

Runway Type Ident Frequency Range Bearing (true/mag) Slope Elevation
13L OM OM - - 132.55° / 127.37 ° - 495 ft / 151 m (AMSL)
13L MM MM - - 132.55° / 127.37 ° - 495 ft / 151 m (AMSL)
13L DME BPL 111.70 MHz 27 nm / 50 km - - 495 ft / 151 m (AMSL)
13L LOC-ILS BPL 109.15 MHz 18 nm / 33 km 132.48° / 127.30 ° - 495 ft / 151 m (AMSL)
13L GS BPL 109.15 MHz 10 nm / 19 km 132.48° / 127.30 ° 3.00° 495 ft / 151 m (AMSL)
13R GS FER 110.50 MHz 10 nm / 19 km 132.44° / 127.26 ° 3.00° 495 ft / 151 m (AMSL)
13R LOC-ILS FER 110.50 MHz 18 nm / 33 km 132.44° / 127.26 ° - 495 ft / 151 m (AMSL)
13R OM OM - - 132.50° / 127.32 ° - 495 ft / 151 m (AMSL)
13R DME FER 110.50 MHz 27 nm / 50 km - - 495 ft / 151 m (AMSL)
13R MM MM - - 132.50° / 127.32 ° - 495 ft / 151 m (AMSL)
31L MM MM - - 312.50° / 307.32 ° - 495 ft / 151 m (AMSL)
31L LOC-ILS FHL 111.50 MHz 18 nm / 33 km 312.44° / 307.26 ° - 495 ft / 151 m (AMSL)
31L DME FHL 111.50 MHz 14 nm / 26 km - - 495 ft / 151 m (AMSL)
31L GS FHL 111.50 MHz 10 nm / 19 km 312.44° / 307.26 ° 3.00° 495 ft / 151 m (AMSL)
31L OM OM - - 312.50° / 307.32 ° - 495 ft / 151 m (AMSL)
31R GS BPR 109.50 MHz 10 nm / 19 km 312.48° / 307.30 ° 3.00° 495 ft / 151 m (AMSL)
31R OM OM - - 312.55° / 307.37 ° - 495 ft / 151 m (AMSL)
31R MM MM - - 312.55° / 307.37 ° - 495 ft / 151 m (AMSL)
31R DME BPR 109.50 MHz 32 nm / 59 km - - 495 ft / 151 m (AMSL)
31R LOC-ILS BPR 109.50 MHz 18 nm / 33 km 312.48° / 307.30 ° - 495 ft / 151 m (AMSL)

Popular Alternatives